Terminal Aerodrome Forecast
Issued by NWS Quad Cities IA IL

Home | Current Version | Previous Version | Text Only | Print | Product List | Glossary On
Versions: 1 2 3 4 5 6 7 8 9 10 11 12 13 14 15 16 17 18 19
000
FTUS43 KDVN 181700
TAFMLI
TAF
KMLI 181720Z 1818/1918 16005KT P6SM SCT025 BKN040 PROB30 1903/1906
      5SM -TSRA BR BKN020CB
     FM190600 22005KT 4SM BR BKN050
      TEMPO 1909/1913 2SM BR
     FM191400 24008KT 6SM BR VCSH BKN040=

USA.gov is the U.S. government's official web portal to all federal, state and local government web resources and services.